sensor_id;sensor_type;location;lat;lon;timestamp;temperature;humidity
27633;DHT22;15046;50.930;13.334;2023-08-24T00:02:06;19.30;84.80
27633;DHT22;15046;50.930;13.334;2023-08-24T00:04:32;19.20;84.80
27633;DHT22;15046;50.930;13.334;2023-08-24T00:06:59;19.20;85.00
27633;DHT22;15046;50.930;13.334;2023-08-24T00:09:25;19.10;85.20
27633;DHT22;15046;50.930;13.334;2023-08-24T00:11:51;19.10;85.30
27633;DHT22;15046;50.930;13.334;2023-08-24T00:14:18;19.00;85.60
27633;DHT22;15046;50.930;13.334;2023-08-24T00:16:44;19.00;86.00
27633;DHT22;15046;50.930;13.334;2023-08-24T00:19:10;18.90;86.20
27633;DHT22;15046;50.930;13.334;2023-08-24T00:21:36;18.90;86.40
27633;DHT22;15046;50.930;13.334;2023-08-24T00:24:02;18.90;86.50
27633;DHT22;15046;50.930;13.334;2023-08-24T00:26:28;18.90;86.60
27633;DHT22;15046;50.930;13.334;2023-08-24T00:28:53;18.90;86.70
27633;DHT22;15046;50.930;13.334;2023-08-24T00:31:19;18.80;86.70
27633;DHT22;15046;50.930;13.334;2023-08-24T00:33:46;18.80;86.80
27633;DHT22;15046;50.930;13.334;2023-08-24T00:36:12;18.80;86.90
27633;DHT22;15046;50.930;13.334;2023-08-24T00:38:38;18.70;87.00
27633;DHT22;15046;50.930;13.334;2023-08-24T00:41:03;18.70;87.10
27633;DHT22;15046;50.930;13.334;2023-08-24T00:43:30;18.70;87.40
27633;DHT22;15046;50.930;13.334;2023-08-24T00:45:59;18.60;87.60
27633;DHT22;15046;50.930;13.334;2023-08-24T00:48:27;18.60;87.80
27633;DHT22;15046;50.930;13.334;2023-08-24T00:50:59;18.50;87.90
27633;DHT22;15046;50.930;13.334;2023-08-24T00:53:27;18.50;88.20
27633;DHT22;15046;50.930;13.334;2023-08-24T00:55:53;18.40;88.60
27633;DHT22;15046;50.930;13.334;2023-08-24T00:58:23;18.30;89.10
27633;DHT22;15046;50.930;13.334;2023-08-24T01:00:55;18.30;89.50
27633;DHT22;15046;50.930;13.334;2023-08-24T01:03:22;18.30;89.90
27633;DHT22;15046;50.930;13.334;2023-08-24T01:05:52;18.20;90.00
27633;DHT22;15046;50.930;13.334;2023-08-24T01:08:18;18.20;90.30
27633;DHT22;15046;50.930;13.334;2023-08-24T01:13:44;18.10;90.90
27633;DHT22;15046;50.930;13.334;2023-08-24T01:16:19;18.10;91.20
27633;DHT22;15046;50.930;13.334;2023-08-24T01:18:47;18.10;91.50
27633;DHT22;15046;50.930;13.334;2023-08-24T01:21:14;18.00;91.80
27633;DHT22;15046;50.930;13.334;2023-08-24T01:26:10;18.00;92.60
27633;DHT22;15046;50.930;13.334;2023-08-24T01:28:37;18.00;93.00
27633;DHT22;15046;50.930;13.334;2023-08-24T01:31:04;17.90;93.40
27633;DHT22;15046;50.930;13.334;2023-08-24T01:33:31;17.80;94.10
27633;DHT22;15046;50.930;13.334;2023-08-24T01:35:57;17.80;94.70
27633;DHT22;15046;50.930;13.334;2023-08-24T01:38:23;17.80;95.40
27633;DHT22;15046;50.930;13.334;2023-08-24T01:43:33;17.70;96.40
27633;DHT22;15046;50.930;13.334;2023-08-24T01:46:04;17.70;96.80
27633;DHT22;15046;50.930;13.334;2023-08-24T01:48:31;17.70;97.30
27633;DHT22;15046;50.930;13.334;2023-08-24T01:50:58;17.60;97.80
27633;DHT22;15046;50.930;13.334;2023-08-24T01:53:25;17.60;98.60
27633;DHT22;15046;50.930;13.334;2023-08-24T01:55:51;17.50;99.30
27633;DHT22;15046;50.930;13.334;2023-08-24T01:58:18;17.50;99.80
27633;DHT22;15046;50.930;13.334;2023-08-24T02:00:44;17.50;99.90
27633;DHT22;15046;50.930;13.334;2023-08-24T02:03:10;17.50;99.90
27633;DHT22;15046;50.930;13.334;2023-08-24T02:05:36;17.50;99.90
27633;DHT22;15046;50.930;13.334;2023-08-24T02:08:02;17.40;99.90
27633;DHT22;15046;50.930;13.334;2023-08-24T02:10:28;17.40;99.90
27633;DHT22;15046;50.930;13.334;2023-08-24T02:12:54;17.40;99.90
27633;DHT22;15046;50.930;13.334;2023-08-24T02:15:20;17.30;99.90
27633;DHT22;15046;50.930;13.334;2023-08-24T02:17:46;17.30;99.90
27633;DHT22;15046;50.930;13.334;2023-08-24T02:20:12;17.20;99.90
27633;DHT22;15046;50.930;13.334;2023-08-24T02:22:38;17.10;99.90
27633;DHT22;15046;50.930;13.334;2023-08-24T02:25:05;17.10;99.90
27633;DHT22;15046;50.930;13.334;2023-08-24T02:27:31;17.00;99.90
27633;DHT22;15046;50.930;13.334;2023-08-24T02:29:57;17.00;99.90
27633;DHT22;15046;50.930;13.334;2023-08-24T02:32:23;17.00;99.90
27633;DHT22;15046;50.930;13.334;2023-08-24T02:34:49;17.00;99.90
27633;DHT22;15046;50.930;13.334;2023-08-24T02:37:15;16.90;99.90
27633;DHT22;15046;50.930;13.334;2023-08-24T02:39:40;17.00;99.90
27633;DHT22;15046;50.930;13.334;2023-08-24T02:42:06;16.90;99.90
27633;DHT22;15046;50.930;13.334;2023-08-24T02:44:32;16.90;99.90
27633;DHT22;15046;50.930;13.334;2023-08-24T02:46:58;16.80;99.90
27633;DHT22;15046;50.930;13.334;2023-08-24T02:49:23;16.80;99.90
27633;DHT22;15046;50.930;13.334;2023-08-24T02:51:49;16.80;99.90
27633;DHT22;15046;50.930;13.334;2023-08-24T02:54:15;16.80;99.90
27633;DHT22;15046;50.930;13.334;2023-08-24T02:56:41;16.80;99.90
27633;DHT22;15046;50.930;13.334;2023-08-24T02:59:06;16.80;99.90
27633;DHT22;15046;50.930;13.334;2023-08-24T03:01:32;16.80;99.90
27633;DHT22;15046;50.930;13.334;2023-08-24T03:03:58;16.80;99.90
27633;DHT22;15046;50.930;13.334;2023-08-24T03:06:24;16.80;99.90
27633;DHT22;15046;50.930;13.334;2023-08-24T03:08:50;16.80;99.90
27633;DHT22;15046;50.930;13.334;2023-08-24T03:11:15;16.80;99.90
27633;DHT22;15046;50.930;13.334;2023-08-24T03:13:41;16.70;99.90
27633;DHT22;15046;50.930;13.334;2023-08-24T03:16:08;16.60;99.90
27633;DHT22;15046;50.930;13.334;2023-08-24T03:18:34;16.60;99.90
27633;DHT22;15046;50.930;13.334;2023-08-24T03:21:01;16.60;99.90
27633;DHT22;15046;50.930;13.334;2023-08-24T03:23:26;16.60;99.90
27633;DHT22;15046;50.930;13.334;2023-08-24T03:25:52;16.50;99.90
27633;DHT22;15046;50.930;13.334;2023-08-24T03:28:18;16.50;99.90
27633;DHT22;15046;50.930;13.334;2023-08-24T03:30:50;16.50;99.90
27633;DHT22;15046;50.930;13.334;2023-08-24T03:33:17;16.50;99.90
27633;DHT22;15046;50.930;13.334;2023-08-24T03:35:43;16.50;99.90
27633;DHT22;15046;50.930;13.334;2023-08-24T03:38:09;16.40;99.90
27633;DHT22;15046;50.930;13.334;2023-08-24T03:40:35;16.40;99.90
27633;DHT22;15046;50.930;13.334;2023-08-24T03:43:03;16.40;99.90
27633;DHT22;15046;50.930;13.334;2023-08-24T03:45:29;16.40;99.90
27633;DHT22;15046;50.930;13.334;2023-08-24T03:47:55;16.30;99.90
27633;DHT22;15046;50.930;13.334;2023-08-24T03:50:21;16.30;99.90
27633;DHT22;15046;50.930;13.334;2023-08-24T03:52:50;16.30;99.90
27633;DHT22;15046;50.930;13.334;2023-08-24T03:55:16;16.20;99.90
27633;DHT22;15046;50.930;13.334;2023-08-24T03:57:42;16.20;99.90
27633;DHT22;15046;50.930;13.334;2023-08-24T04:00:09;16.20;99.90
27633;DHT22;15046;50.930;13.334;2023-08-24T04:02:44;16.10;99.90
27633;DHT22;15046;50.930;13.334;2023-08-24T04:05:10;16.10;99.90
27633;DHT22;15046;50.930;13.334;2023-08-24T04:07:35;16.00;99.90
27633;DHT22;15046;50.930;13.334;2023-08-24T04:10:06;16.00;99.90
27633;DHT22;15046;50.930;13.334;2023-08-24T04:12:32;16.00;99.90
27633;DHT22;15046;50.930;13.334;2023-08-24T04:14:58;16.00;99.90
27633;DHT22;15046;50.930;13.334;2023-08-24T04:17:25;16.00;99.90
27633;DHT22;15046;50.930;13.334;2023-08-24T04:19:51;16.00;99.90
27633;DHT22;15046;50.930;13.334;2023-08-24T04:22:17;16.00;99.90
27633;DHT22;15046;50.930;13.334;2023-08-24T04:24:43;16.00;99.90
27633;DHT22;15046;50.930;13.334;2023-08-24T04:27:08;16.00;99.90
27633;DHT22;15046;50.930;13.334;2023-08-24T04:29:34;16.00;99.90
27633;DHT22;15046;50.930;13.334;2023-08-24T04:32:00;16.00;99.90
27633;DHT22;15046;50.930;13.334;2023-08-24T04:34:26;16.00;99.90
27633;DHT22;15046;50.930;13.334;2023-08-24T04:36:51;15.90;99.90
27633;DHT22;15046;50.930;13.334;2023-08-24T04:39:17;16.00;99.90
27633;DHT22;15046;50.930;13.334;2023-08-24T04:41:44;15.90;99.90
27633;DHT22;15046;50.930;13.334;2023-08-24T04:44:10;15.90;99.90
27633;DHT22;15046;50.930;13.334;2023-08-24T04:46:36;15.90;99.90
27633;DHT22;15046;50.930;13.334;2023-08-24T04:49:02;16.00;99.90
27633;DHT22;15046;50.930;13.334;2023-08-24T04:51:29;15.90;99.90
27633;DHT22;15046;50.930;13.334;2023-08-24T04:53:54;16.00;99.90
27633;DHT22;15046;50.930;13.334;2023-08-24T04:56:20;16.10;99.90
27633;DHT22;15046;50.930;13.334;2023-08-24T04:58:56;16.10;99.90
27633;DHT22;15046;50.930;13.334;2023-08-24T05:01:26;16.20;99.90
27633;DHT22;15046;50.930;13.334;2023-08-24T05:03:52;16.20;99.90
27633;DHT22;15046;50.930;13.334;2023-08-24T05:06:21;16.30;99.90
27633;DHT22;15046;50.930;13.334;2023-08-24T05:08:47;16.40;99.90
27633;DHT22;15046;50.930;13.334;2023-08-24T05:11:21;16.40;99.90
27633;DHT22;15046;50.930;13.334;2023-08-24T05:13:48;16.50;99.90
27633;DHT22;15046;50.930;13.334;2023-08-24T05:16:14;16.50;99.90
27633;DHT22;15046;50.930;13.334;2023-08-24T05:18:40;16.60;99.90
27633;DHT22;15046;50.930;13.334;2023-08-24T05:21:06;16.60;99.90
27633;DHT22;15046;50.930;13.334;2023-08-24T05:23:35;16.70;99.90
27633;DHT22;15046;50.930;13.334;2023-08-24T05:26:02;16.70;99.90
27633;DHT22;15046;50.930;13.334;2023-08-24T05:28:29;16.80;99.90
27633;DHT22;15046;50.930;13.334;2023-08-24T05:30:56;16.80;99.90
27633;DHT22;15046;50.930;13.334;2023-08-24T05:33:23;16.90;99.90
27633;DHT22;15046;50.930;13.334;2023-08-24T05:35:50;17.00;99.90
27633;DHT22;15046;50.930;13.334;2023-08-24T05:38:17;17.00;99.90
27633;DHT22;15046;50.930;13.334;2023-08-24T05:40:43;17.10;99.90
27633;DHT22;15046;50.930;13.334;2023-08-24T05:43:12;17.10;99.90
27633;DHT22;15046;50.930;13.334;2023-08-24T05:45:38;17.20;99.90
27633;DHT22;15046;50.930;13.334;2023-08-24T05:48:06;17.30;99.90
27633;DHT22;15046;50.930;13.334;2023-08-24T05:50:33;17.30;99.90
27633;DHT22;15046;50.930;13.334;2023-08-24T05:52:58;17.30;99.90
27633;DHT22;15046;50.930;13.334;2023-08-24T05:55:25;17.40;99.90
27633;DHT22;15046;50.930;13.334;2023-08-24T05:57:51;17.50;99.90
27633;DHT22;15046;50.930;13.334;2023-08-24T06:00:17;17.50;99.90
27633;DHT22;15046;50.930;13.334;2023-08-24T06:02:43;17.50;99.90
27633;DHT22;15046;50.930;13.334;2023-08-24T06:05:09;17.60;99.90
27633;DHT22;15046;50.930;13.334;2023-08-24T06:07:35;17.70;99.90
27633;DHT22;15046;50.930;13.334;2023-08-24T06:10:01;17.70;99.90
27633;DHT22;15046;50.930;13.334;2023-08-24T06:12:27;17.80;99.90
27633;DHT22;15046;50.930;13.334;2023-08-24T06:14:53;17.90;99.90
27633;DHT22;15046;50.930;13.334;2023-08-24T06:17:19;17.90;99.90
27633;DHT22;15046;50.930;13.334;2023-08-24T06:19:45;18.00;99.90
27633;DHT22;15046;50.930;13.334;2023-08-24T06:22:11;18.00;99.90
27633;DHT22;15046;50.930;13.334;2023-08-24T06:24:37;18.10;99.90
27633;DHT22;15046;50.930;13.334;2023-08-24T06:27:03;18.20;99.90
27633;DHT22;15046;50.930;13.334;2023-08-24T06:29:29;18.20;99.90
27633;DHT22;15046;50.930;13.334;2023-08-24T06:31:55;18.30;99.90
27633;DHT22;15046;50.930;13.334;2023-08-24T06:34:21;18.30;99.90
27633;DHT22;15046;50.930;13.334;2023-08-24T06:36:47;18.40;99.90
27633;DHT22;15046;50.930;13.334;2023-08-24T06:39:13;18.50;99.90
27633;DHT22;15046;50.930;13.334;2023-08-24T06:41:39;18.50;99.90
27633;DHT22;15046;50.930;13.334;2023-08-24T06:44:05;18.60;99.90
27633;DHT22;15046;50.930;13.334;2023-08-24T06:46:31;18.70;99.90
27633;DHT22;15046;50.930;13.334;2023-08-24T06:48:57;18.80;99.90
27633;DHT22;15046;50.930;13.334;2023-08-24T06:51:24;18.90;99.90
27633;DHT22;15046;50.930;13.334;2023-08-24T06:53:50;19.00;99.90
27633;DHT22;15046;50.930;13.334;2023-08-24T06:56:15;19.10;99.90
27633;DHT22;15046;50.930;13.334;2023-08-24T06:58:43;19.10;99.90
27633;DHT22;15046;50.930;13.334;2023-08-24T07:01:08;19.20;99.90
27633;DHT22;15046;50.930;13.334;2023-08-24T07:03:34;19.30;99.90
27633;DHT22;15046;50.930;13.334;2023-08-24T07:06:00;19.40;99.90
27633;DHT22;15046;50.930;13.334;2023-08-24T07:08:26;19.50;99.90
27633;DHT22;15046;50.930;13.334;2023-08-24T07:10:51;19.60;99.90
27633;DHT22;15046;50.930;13.334;2023-08-24T07:13:17;19.70;99.90
27633;DHT22;15046;50.930;13.334;2023-08-24T07:15:43;19.70;99.90
27633;DHT22;15046;50.930;13.334;2023-08-24T07:18:11;19.90;99.90
27633;DHT22;15046;50.930;13.334;2023-08-24T07:20:37;20.00;99.90
27633;DHT22;15046;50.930;13.334;2023-08-24T07:23:03;20.10;99.90
27633;DHT22;15046;50.930;13.334;2023-08-24T07:25:29;20.20;99.90
27633;DHT22;15046;50.930;13.334;2023-08-24T07:27:55;20.40;99.90
27633;DHT22;15046;50.930;13.334;2023-08-24T07:30:28;20.60;99.90
27633;DHT22;15046;50.930;13.334;2023-08-24T07:32:54;20.70;99.90
27633;DHT22;15046;50.930;13.334;2023-08-24T07:35:20;20.90;99.90
27633;DHT22;15046;50.930;13.334;2023-08-24T07:37:52;21.10;99.90
27633;DHT22;15046;50.930;13.334;2023-08-24T07:40:18;21.30;99.90
27633;DHT22;15046;50.930;13.334;2023-08-24T07:42:48;21.50;99.90
27633;DHT22;15046;50.930;13.334;2023-08-24T07:45:16;21.60;99.90
27633;DHT22;15046;50.930;13.334;2023-08-24T07:47:43;21.60;99.90
27633;DHT22;15046;50.930;13.334;2023-08-24T07:50:09;21.80;99.90
27633;DHT22;15046;50.930;13.334;2023-08-24T07:52:37;21.80;99.90
27633;DHT22;15046;50.930;13.334;2023-08-24T07:55:03;21.80;99.90
27633;DHT22;15046;50.930;13.334;2023-08-24T07:57:30;21.90;99.90
27633;DHT22;15046;50.930;13.334;2023-08-24T07:59:58;22.00;99.90
27633;DHT22;15046;50.930;13.334;2023-08-24T08:02:23;22.20;98.50
27633;DHT22;15046;50.930;13.334;2023-08-24T08:04:49;22.30;97.70
27633;DHT22;15046;50.930;13.334;2023-08-24T08:07:15;22.50;97.20
27633;DHT22;15046;50.930;13.334;2023-08-24T08:09:42;22.50;96.90
27633;DHT22;15046;50.930;13.334;2023-08-24T08:12:08;22.60;96.40
27633;DHT22;15046;50.930;13.334;2023-08-24T08:14:33;22.70;95.90
27633;DHT22;15046;50.930;13.334;2023-08-24T08:17:05;22.90;95.30
27633;DHT22;15046;50.930;13.334;2023-08-24T08:19:31;23.00;94.30
27633;DHT22;15046;50.930;13.334;2023-08-24T08:21:57;23.10;94.00
27633;DHT22;15046;50.930;13.334;2023-08-24T08:24:23;23.20;92.60
27633;DHT22;15046;50.930;13.334;2023-08-24T08:26:49;23.40;91.80
27633;DHT22;15046;50.930;13.334;2023-08-24T08:29:17;23.50;91.40
27633;DHT22;15046;50.930;13.334;2023-08-24T08:31:43;23.50;91.30
27633;DHT22;15046;50.930;13.334;2023-08-24T08:34:09;23.50;91.20
27633;DHT22;15046;50.930;13.334;2023-08-24T08:36:35;23.60;91.00
27633;DHT22;15046;50.930;13.334;2023-08-24T08:39:01;23.70;90.30
27633;DHT22;15046;50.930;13.334;2023-08-24T08:41:31;23.80;89.40
27633;DHT22;15046;50.930;13.334;2023-08-24T08:44:04;23.90;89.10
27633;DHT22;15046;50.930;13.334;2023-08-24T08:46:31;24.00;86.90
27633;DHT22;15046;50.930;13.334;2023-08-24T08:49:00;24.10;85.70
27633;DHT22;15046;50.930;13.334;2023-08-24T08:51:26;24.20;83.50
27633;DHT22;15046;50.930;13.334;2023-08-24T08:53:52;24.40;81.30
27633;DHT22;15046;50.930;13.334;2023-08-24T08:56:19;24.50;81.10
27633;DHT22;15046;50.930;13.334;2023-08-24T08:58:46;24.60;80.90
27633;DHT22;15046;50.930;13.334;2023-08-24T09:01:12;24.60;80.30
27633;DHT22;15046;50.930;13.334;2023-08-24T09:03:39;24.80;79.90
27633;DHT22;15046;50.930;13.334;2023-08-24T09:06:05;24.90;78.40
27633;DHT22;15046;50.930;13.334;2023-08-24T09:08:31;25.10;78.20
27633;DHT22;15046;50.930;13.334;2023-08-24T09:10:58;25.20;78.00
27633;DHT22;15046;50.930;13.334;2023-08-24T09:13:24;25.20;77.30
27633;DHT22;15046;50.930;13.334;2023-08-24T09:15:53;25.30;77.30
27633;DHT22;15046;50.930;13.334;2023-08-24T09:18:21;25.40;76.20
27633;DHT22;15046;50.930;13.334;2023-08-24T09:20:47;25.40;77.00
27633;DHT22;15046;50.930;13.334;2023-08-24T09:23:20;25.60;77.30
27633;DHT22;15046;50.930;13.334;2023-08-24T09:25:46;25.70;75.20
27633;DHT22;15046;50.930;13.334;2023-08-24T09:28:22;25.80;76.10
27633;DHT22;15046;50.930;13.334;2023-08-24T09:30:53;26.00;74.70
27633;DHT22;15046;50.930;13.334;2023-08-24T09:33:22;26.10;75.60
27633;DHT22;15046;50.930;13.334;2023-08-24T09:35:54;26.20;75.60
27633;DHT22;15046;50.930;13.334;2023-08-24T09:38:24;26.40;74.00
27633;DHT22;15046;50.930;13.334;2023-08-24T09:40:56;26.50;72.50
27633;DHT22;15046;50.930;13.334;2023-08-24T09:43:22;26.70;72.80
27633;DHT22;15046;50.930;13.334;2023-08-24T09:45:53;26.90;72.30
27633;DHT22;15046;50.930;13.334;2023-08-24T09:48:20;27.20;71.00
27633;DHT22;15046;50.930;13.334;2023-08-24T09:50:48;27.60;70.50
27633;DHT22;15046;50.930;13.334;2023-08-24T09:58:18;28.90;68.20
27633;DHT22;15046;50.930;13.334;2023-08-24T10:00:46;29.60;66.90
27633;DHT22;15046;50.930;13.334;2023-08-24T10:03:16;30.20;67.00
27633;DHT22;15046;50.930;13.334;2023-08-24T10:05:53;30.70;66.30
27633;DHT22;15046;50.930;13.334;2023-08-24T10:08:27;31.10;64.30
27633;DHT22;15046;50.930;13.334;2023-08-24T10:10:56;31.30;64.60
27633;DHT22;15046;50.930;13.334;2023-08-24T10:13:27;31.40;64.30
27633;DHT22;15046;50.930;13.334;2023-08-24T10:15:55;31.50;64.60
27633;DHT22;15046;50.930;13.334;2023-08-24T10:18:22;31.50;63.20
27633;DHT22;15046;50.930;13.334;2023-08-24T10:20:50;31.50;62.50
27633;DHT22;15046;50.930;13.334;2023-08-24T10:23:19;31.70;62.50
27633;DHT22;15046;50.930;13.334;2023-08-24T10:25:46;32.20;63.40
27633;DHT22;15046;50.930;13.334;2023-08-24T10:28:13;32.60;59.90
27633;DHT22;15046;50.930;13.334;2023-08-24T10:30:40;32.80;58.80
27633;DHT22;15046;50.930;13.334;2023-08-24T10:33:10;33.00;57.40
27633;DHT22;15046;50.930;13.334;2023-08-24T10:35:39;33.50;58.50
27633;DHT22;15046;50.930;13.334;2023-08-24T10:38:06;33.90;57.80
27633;DHT22;15046;50.930;13.334;2023-08-24T10:43:02;34.00;56.80
27633;DHT22;15046;50.930;13.334;2023-08-24T10:45:59;33.60;56.40
27633;DHT22;15046;50.930;13.334;2023-08-24T10:48:27;33.00;57.00
27633;DHT22;15046;50.930;13.334;2023-08-24T10:53:57;34.00;57.30
27633;DHT22;15046;50.930;13.334;2023-08-24T10:56:35;34.00;58.10
27633;DHT22;15046;50.930;13.334;2023-08-24T10:59:17;33.60;55.80
27633;DHT22;15046;50.930;13.334;2023-08-24T11:02:03;32.80;55.70
27633;DHT22;15046;50.930;13.334;2023-08-24T11:04:29;32.00;55.60
27633;DHT22;15046;50.930;13.334;2023-08-24T11:06:59;31.50;57.20
27633;DHT22;15046;50.930;13.334;2023-08-24T11:09:47;31.20;57.90
27633;DHT22;15046;50.930;13.334;2023-08-24T11:12:13;30.70;58.90
27633;DHT22;15046;50.930;13.334;2023-08-24T11:14:52;30.30;58.80
27633;DHT22;15046;50.930;13.334;2023-08-24T11:17:24;29.90;59.40
27633;DHT22;15046;50.930;13.334;2023-08-24T11:19:55;29.70;60.90
27633;DHT22;15046;50.930;13.334;2023-08-24T11:22:20;29.70;60.10
27633;DHT22;15046;50.930;13.334;2023-08-24T11:24:49;29.70;61.60
27633;DHT22;15046;50.930;13.334;2023-08-24T11:27:15;29.80;61.10
27633;DHT22;15046;50.930;13.334;2023-08-24T11:29:42;29.80;61.50
27633;DHT22;15046;50.930;13.334;2023-08-24T11:32:08;29.90;62.30
27633;DHT22;15046;50.930;13.334;2023-08-24T11:34:34;30.00;61.70
27633;DHT22;15046;50.930;13.334;2023-08-24T11:37:01;30.10;62.20
27633;DHT22;15046;50.930;13.334;2023-08-24T11:39:27;30.10;61.80
27633;DHT22;15046;50.930;13.334;2023-08-24T11:42:04;30.00;61.30
27633;DHT22;15046;50.930;13.334;2023-08-24T11:44:51;30.00;59.90
27633;DHT22;15046;50.930;13.334;2023-08-24T11:47:20;30.10;61.70
27633;DHT22;15046;50.930;13.334;2023-08-24T11:49:46;30.10;62.50
27633;DHT22;15046;50.930;13.334;2023-08-24T11:52:12;30.50;61.90
27633;DHT22;15046;50.930;13.334;2023-08-24T11:54:41;31.10;60.30
27633;DHT22;15046;50.930;13.334;2023-08-24T11:57:08;31.50;61.30
27633;DHT22;15046;50.930;13.334;2023-08-24T11:59:38;32.00;61.40
27633;DHT22;15046;50.930;13.334;2023-08-24T12:02:05;32.60;59.30
27633;DHT22;15046;50.930;13.334;2023-08-24T12:04:40;33.10;57.90
27633;DHT22;15046;50.930;13.334;2023-08-24T12:07:11;34.10;55.80
27633;DHT22;15046;50.930;13.334;2023-08-24T12:09:39;35.50;56.20
27633;DHT22;15046;50.930;13.334;2023-08-24T12:12:05;36.60;53.40
27633;DHT22;15046;50.930;13.334;2023-08-24T12:14:44;36.20;52.60
27633;DHT22;15046;50.930;13.334;2023-08-24T12:17:10;35.00;54.30
27633;DHT22;15046;50.930;13.334;2023-08-24T12:19:36;33.90;55.40
27633;DHT22;15046;50.930;13.334;2023-08-24T12:22:03;32.90;55.70
27633;DHT22;15046;50.930;13.334;2023-08-24T12:24:29;32.30;57.00
27633;DHT22;15046;50.930;13.334;2023-08-24T12:26:57;32.00;57.90
27633;DHT22;15046;50.930;13.334;2023-08-24T12:29:24;32.00;57.60
27633;DHT22;15046;50.930;13.334;2023-08-24T12:31:50;32.50;57.30
27633;DHT22;15046;50.930;13.334;2023-08-24T12:34:16;32.70;57.10
27633;DHT22;15046;50.930;13.334;2023-08-24T12:36:42;32.60;57.80
27633;DHT22;15046;50.930;13.334;2023-08-24T12:39:11;32.50;57.20
27633;DHT22;15046;50.930;13.334;2023-08-24T12:41:41;32.30;57.40
27633;DHT22;15046;50.930;13.334;2023-08-24T12:44:07;32.10;57.30
27633;DHT22;15046;50.930;13.334;2023-08-24T12:46:34;33.00;57.20
27633;DHT22;15046;50.930;13.334;2023-08-24T12:49:03;34.50;56.60
27633;DHT22;15046;50.930;13.334;2023-08-24T12:51:28;36.10;55.80
27633;DHT22;15046;50.930;13.334;2023-08-24T12:53:54;37.20;54.10
27633;DHT22;15046;50.930;13.334;2023-08-24T12:56:20;38.00;54.30
27633;DHT22;15046;50.930;13.334;2023-08-24T12:58:47;38.70;52.80
27633;DHT22;15046;50.930;13.334;2023-08-24T13:01:13;38.90;51.20
27633;DHT22;15046;50.930;13.334;2023-08-24T13:03:39;39.10;51.20
27633;DHT22;15046;50.930;13.334;2023-08-24T13:06:07;39.50;50.70
27633;DHT22;15046;50.930;13.334;2023-08-24T13:08:33;39.80;49.70
27633;DHT22;15046;50.930;13.334;2023-08-24T13:10:58;40.20;49.30
27633;DHT22;15046;50.930;13.334;2023-08-24T13:13:24;40.50;48.00
27633;DHT22;15046;50.930;13.334;2023-08-24T13:15:50;40.30;48.40
27633;DHT22;15046;50.930;13.334;2023-08-24T13:18:17;40.10;48.30
27633;DHT22;15046;50.930;13.334;2023-08-24T13:20:43;40.10;48.60
27633;DHT22;15046;50.930;13.334;2023-08-24T13:23:09;40.10;47.90
27633;DHT22;15046;50.930;13.334;2023-08-24T13:25:35;39.90;47.60
27633;DHT22;15046;50.930;13.334;2023-08-24T13:28:01;39.60;47.80
27633;DHT22;15046;50.930;13.334;2023-08-24T13:30:27;39.60;48.20
27633;DHT22;15046;50.930;13.334;2023-08-24T13:32:53;39.80;47.90
27633;DHT22;15046;50.930;13.334;2023-08-24T13:35:19;39.90;46.90
27633;DHT22;15046;50.930;13.334;2023-08-24T13:37:45;39.60;46.80
27633;DHT22;15046;50.930;13.334;2023-08-24T13:40:11;39.60;46.30
27633;DHT22;15046;50.930;13.334;2023-08-24T13:42:37;39.80;46.20
27633;DHT22;15046;50.930;13.334;2023-08-24T13:45:04;39.90;46.70
27633;DHT22;15046;50.930;13.334;2023-08-24T13:47:30;40.20;46.80
27633;DHT22;15046;50.930;13.334;2023-08-24T13:49:56;40.20;46.50
27633;DHT22;15046;50.930;13.334;2023-08-24T13:52:21;40.30;46.00
27633;DHT22;15046;50.930;13.334;2023-08-24T13:54:47;40.20;45.90
27633;DHT22;15046;50.930;13.334;2023-08-24T13:57:13;40.30;46.00
27633;DHT22;15046;50.930;13.334;2023-08-24T13:59:39;40.30;46.20
27633;DHT22;15046;50.930;13.334;2023-08-24T14:02:06;40.40;45.80
27633;DHT22;15046;50.930;13.334;2023-08-24T14:04:32;40.70;45.30
27633;DHT22;15046;50.930;13.334;2023-08-24T14:06:57;40.90;45.20
27633;DHT22;15046;50.930;13.334;2023-08-24T14:09:23;41.20;45.00
27633;DHT22;15046;50.930;13.334;2023-08-24T14:11:49;41.40;44.60
27633;DHT22;15046;50.930;13.334;2023-08-24T14:14:15;41.20;44.60
27633;DHT22;15046;50.930;13.334;2023-08-24T14:16:40;41.20;44.00
27633;DHT22;15046;50.930;13.334;2023-08-24T14:19:06;40.90;43.80
27633;DHT22;15046;50.930;13.334;2023-08-24T14:24:07;40.40;44.30
27633;DHT22;15046;50.930;13.334;2023-08-24T14:26:33;40.30;45.80
27633;DHT22;15046;50.930;13.334;2023-08-24T14:29:00;40.50;45.50
27633;DHT22;15046;50.930;13.334;2023-08-24T14:31:29;40.40;44.80
27633;DHT22;15046;50.930;13.334;2023-08-24T14:33:55;40.10;44.90
27633;DHT22;15046;50.930;13.334;2023-08-24T14:36:22;39.90;45.40
27633;DHT22;15046;50.930;13.334;2023-08-24T14:38:49;39.80;45.70
27633;DHT22;15046;50.930;13.334;2023-08-24T14:41:15;39.80;44.80
27633;DHT22;15046;50.930;13.334;2023-08-24T14:43:41;39.80;44.30
27633;DHT22;15046;50.930;13.334;2023-08-24T14:46:08;39.80;44.10
27633;DHT22;15046;50.930;13.334;2023-08-24T14:48:34;39.90;43.80
27633;DHT22;15046;50.930;13.334;2023-08-24T14:51:01;40.30;45.40
27633;DHT22;15046;50.930;13.334;2023-08-24T14:53:27;40.30;44.50
27633;DHT22;15046;50.930;13.334;2023-08-24T14:55:55;40.40;44.40
27633;DHT22;15046;50.930;13.334;2023-08-24T14:58:22;40.70;44.30
27633;DHT22;15046;50.930;13.334;2023-08-24T15:00:49;41.10;44.10
27633;DHT22;15046;50.930;13.334;2023-08-24T15:03:16;41.50;43.70
27633;DHT22;15046;50.930;13.334;2023-08-24T15:05:46;41.70;42.90
27633;DHT22;15046;50.930;13.334;2023-08-24T15:08:14;41.70;42.60
27633;DHT22;15046;50.930;13.334;2023-08-24T15:10:40;41.80;42.20
27633;DHT22;15046;50.930;13.334;2023-08-24T15:13:06;41.70;41.90
27633;DHT22;15046;50.930;13.334;2023-08-24T15:15:35;41.80;42.60
27633;DHT22;15046;50.930;13.334;2023-08-24T15:18:03;41.90;42.30
27633;DHT22;15046;50.930;13.334;2023-08-24T15:20:28;42.00;42.40
27633;DHT22;15046;50.930;13.334;2023-08-24T15:22:54;41.80;41.90
27633;DHT22;15046;50.930;13.334;2023-08-24T15:25:20;41.70;41.80
27633;DHT22;15046;50.930;13.334;2023-08-24T15:27:47;41.80;42.20
27633;DHT22;15046;50.930;13.334;2023-08-24T15:30:13;41.70;41.70
27633;DHT22;15046;50.930;13.334;2023-08-24T15:32:39;41.60;42.60
27633;DHT22;15046;50.930;13.334;2023-08-24T15:35:05;41.50;42.80
27633;DHT22;15046;50.930;13.334;2023-08-24T15:37:31;41.10;42.70